createdAt,value
2018-08-11T00:01:58.900Z,99.90
2018-08-11T00:04:27.396Z,99.90
2018-08-11T00:06:55.881Z,99.90
2018-08-11T00:09:24.392Z,99.90
2018-08-11T00:11:52.868Z,99.90
2018-08-11T00:14:21.360Z,99.90
2018-08-11T00:16:49.904Z,99.90
2018-08-11T00:19:18.412Z,99.90
2018-08-11T00:21:46.857Z,99.90
2018-08-11T00:24:15.361Z,99.90
2018-08-11T00:26:43.889Z,99.90
2018-08-11T00:29:12.336Z,99.90
2018-08-11T00:31:40.768Z,99.90
2018-08-11T00:34:09.248Z,99.90
2018-08-11T00:36:37.761Z,99.90
2018-08-11T00:39:09.101Z,99.90
2018-08-11T00:41:37.601Z,99.90
2018-08-11T00:44:06.796Z,99.90
2018-08-11T00:46:35.304Z,99.90
2018-08-11T00:49:03.838Z,99.90
2018-08-11T00:51:32.384Z,99.90
2018-08-11T00:54:00.866Z,99.90
2018-08-11T00:56:29.300Z,99.90
2018-08-11T00:58:57.748Z,99.90
2018-08-11T01:01:26.215Z,99.90
2018-08-11T01:03:54.672Z,99.90
2018-08-11T01:06:23.116Z,99.90
2018-08-11T01:08:51.587Z,99.90
2018-08-11T01:11:20.061Z,99.90
2018-08-11T01:13:48.536Z,99.90
2018-08-11T01:16:16.985Z,99.90
2018-08-11T01:18:45.432Z,99.90
2018-08-11T01:21:13.949Z,99.90
2018-08-11T01:23:42.432Z,99.90
2018-08-11T01:26:10.909Z,99.90
2018-08-11T01:28:39.444Z,99.90
2018-08-11T01:31:07.884Z,99.90
2018-08-11T01:33:36.568Z,99.90
2018-08-11T01:36:05.029Z,99.90
2018-08-11T01:38:33.480Z,99.90
2018-08-11T01:41:01.945Z,99.90
2018-08-11T01:43:30.408Z,99.90
2018-08-11T01:45:58.844Z,99.90
2018-08-11T01:48:27.285Z,99.90
2018-08-11T01:50:55.748Z,99.90
2018-08-11T01:53:24.192Z,99.90
2018-08-11T01:55:52.670Z,99.90
2018-08-11T01:58:21.216Z,99.90
2018-08-11T02:00:49.684Z,99.90
2018-08-11T02:03:18.133Z,99.90
2018-08-11T02:05:46.589Z,99.90
2018-08-11T02:08:15.036Z,99.90
2018-08-11T02:10:43.540Z,99.90
2018-08-11T02:13:11.976Z,99.90
2018-08-11T02:15:40.445Z,99.90
2018-08-11T02:18:08.927Z,99.90
2018-08-11T02:20:37.361Z,99.90
2018-08-11T02:23:06.012Z,99.90
2018-08-11T02:25:34.629Z,99.90
2018-08-11T02:28:03.105Z,99.90
2018-08-11T02:30:31.604Z,99.90
2018-08-11T02:33:00.100Z,99.90
2018-08-11T02:35:28.613Z,99.90
2018-08-11T02:37:57.068Z,99.90
2018-08-11T02:40:25.506Z,99.90
2018-08-11T02:42:53.988Z,99.90
2018-08-11T02:45:22.438Z,99.90
2018-08-11T02:47:50.940Z,99.90
2018-08-11T02:50:19.388Z,99.90
2018-08-11T02:52:47.856Z,99.90
2018-08-11T02:55:16.293Z,99.90
2018-08-11T02:57:44.759Z,99.90
2018-08-11T03:00:13.480Z,99.90
2018-08-11T03:02:41.929Z,99.90
2018-08-11T03:05:10.382Z,99.90
2018-08-11T03:07:39.064Z,99.90
2018-08-11T03:10:09.141Z,99.90
2018-08-11T03:12:37.697Z,99.90
2018-08-11T03:15:07.141Z,99.90
2018-08-11T03:17:35.604Z,99.90
2018-08-11T03:20:05.152Z,99.90
2018-08-11T03:22:33.596Z,99.90
2018-08-11T03:25:02.063Z,99.90
2018-08-11T03:27:30.520Z,99.90
2018-08-11T03:29:58.992Z,99.90
2018-08-11T03:32:27.712Z,99.90
2018-08-11T03:34:57.206Z,99.90
2018-08-11T03:37:25.840Z,99.90
2018-08-11T03:39:56.670Z,99.90
2018-08-11T03:42:25.120Z,99.90
2018-08-11T03:44:53.560Z,99.90
2018-08-11T03:47:22.380Z,99.90
2018-08-11T03:49:50.876Z,99.90
2018-08-11T03:52:19.355Z,99.90
2018-08-11T03:54:47.816Z,99.90
2018-08-11T03:57:16.276Z,99.90
2018-08-11T03:59:44.732Z,99.90
2018-08-11T04:02:13.180Z,99.90
2018-08-11T04:04:41.654Z,99.90
2018-08-11T04:07:11.182Z,99.90
2018-08-11T04:09:39.660Z,99.90
2018-08-11T04:12:08.152Z,99.90
2018-08-11T04:14:36.593Z,99.90
2018-08-11T04:17:05.048Z,99.90
2018-08-11T04:19:33.464Z,99.90
2018-08-11T04:22:01.908Z,99.90
2018-08-11T04:24:30.947Z,99.90
2018-08-11T04:26:59.403Z,99.90
2018-08-11T04:29:27.828Z,99.90
2018-08-11T04:31:57.215Z,99.90
2018-08-11T04:34:25.643Z,99.90
2018-08-11T04:36:54.072Z,99.90
2018-08-11T04:39:22.544Z,99.90
2018-08-11T04:41:51.006Z,99.90
2018-08-11T04:44:19.441Z,99.90
2018-08-11T04:46:47.880Z,99.90
2018-08-11T04:49:16.312Z,99.90
2018-08-11T04:51:44.732Z,99.90
2018-08-11T04:54:13.204Z,99.90
2018-08-11T04:56:41.636Z,99.90
2018-08-11T04:59:10.101Z,99.90
2018-08-11T05:01:38.558Z,99.90
2018-08-11T05:04:07.230Z,99.90
2018-08-11T05:06:36.125Z,99.90
2018-08-11T05:09:06.292Z,99.90
2018-08-11T05:11:34.732Z,99.90
2018-08-11T05:14:03.548Z,99.90
2018-08-11T05:16:31.995Z,99.90
2018-08-11T05:19:00.425Z,99.90
2018-08-11T05:21:28.856Z,99.90
2018-08-11T05:23:57.312Z,99.90
2018-08-11T05:26:25.779Z,99.90
2018-08-11T05:28:54.229Z,99.90
2018-08-11T05:31:22.697Z,99.90
2018-08-11T05:33:51.789Z,99.90
2018-08-11T05:36:20.248Z,99.90
2018-08-11T05:38:48.716Z,99.90
2018-08-11T05:41:17.164Z,99.90
2018-08-11T05:43:45.616Z,99.90
2018-08-11T05:46:14.124Z,99.90
2018-08-11T05:48:42.563Z,99.90
2018-08-11T05:51:11.308Z,99.90
2018-08-11T05:53:39.742Z,99.90
2018-08-11T05:56:08.209Z,99.90
2018-08-11T05:58:36.651Z,99.90
2018-08-11T06:01:05.493Z,99.90
2018-08-11T06:03:34.080Z,99.90
2018-08-11T06:06:02.930Z,99.90
2018-08-11T06:08:31.359Z,99.90
2018-08-11T06:11:00.172Z,99.90
2018-08-11T06:13:29.113Z,99.90
2018-08-11T06:15:57.636Z,99.90
2018-08-11T06:18:26.104Z,99.90
2018-08-11T06:20:54.620Z,99.90
2018-08-11T06:23:23.059Z,99.90
2018-08-11T06:25:51.494Z,99.90
2018-08-11T06:28:19.955Z,99.90
2018-08-11T06:30:48.428Z,99.90
2018-08-11T06:33:16.888Z,99.90
2018-08-11T06:35:45.348Z,99.90
2018-08-11T06:38:13.836Z,99.90
2018-08-11T06:40:42.385Z,99.90
2018-08-11T06:43:10.897Z,99.90
2018-08-11T06:45:39.384Z,99.90
2018-08-11T06:48:07.835Z,99.90
2018-08-11T06:50:36.361Z,99.90
2018-08-11T06:53:04.821Z,99.90
2018-08-11T06:55:33.312Z,99.90
2018-08-11T06:58:01.748Z,99.90
2018-08-11T07:00:30.284Z,99.90
2018-08-11T07:02:58.688Z,99.90
2018-08-11T07:05:27.152Z,99.90
2018-08-11T07:07:55.590Z,99.90
2018-08-11T07:10:24.066Z,99.90
2018-08-11T07:12:52.492Z,99.90
2018-08-11T07:15:21.009Z,99.90
2018-08-11T07:17:49.896Z,99.90
2018-08-11T07:20:18.340Z,99.90
2018-08-11T07:22:46.780Z,99.90
2018-08-11T07:25:15.261Z,99.90
2018-08-11T07:27:43.800Z,99.90
2018-08-11T07:30:12.300Z,99.90
2018-08-11T07:32:40.920Z,99.90
2018-08-11T07:35:09.353Z,99.90
2018-08-11T07:37:37.845Z,99.90
2018-08-11T07:40:06.376Z,99.90
2018-08-11T07:42:34.948Z,99.90
2018-08-11T07:45:03.458Z,99.90
2018-08-11T07:47:32.006Z,99.90
2018-08-11T07:50:00.376Z,99.90
2018-08-11T07:52:28.833Z,99.90
2018-08-11T07:54:57.306Z,99.90
2018-08-11T07:57:25.833Z,99.90
2018-08-11T07:59:54.268Z,99.90
2018-08-11T08:02:22.704Z,99.90
2018-08-11T08:04:51.152Z,99.90
2018-08-11T08:07:19.628Z,99.90
2018-08-11T08:09:48.152Z,99.90
2018-08-11T08:12:16.620Z,99.90
2018-08-11T08:14:45.083Z,99.90
2018-08-11T08:17:13.552Z,99.90
2018-08-11T08:19:41.997Z,99.90
2018-08-11T08:22:10.440Z,99.90
2018-08-11T08:24:38.877Z,99.90
2018-08-11T08:27:07.347Z,99.90
2018-08-11T08:29:35.828Z,99.90
2018-08-11T08:32:04.365Z,99.90
2018-08-11T08:34:32.828Z,99.90
2018-08-11T08:37:01.285Z,99.90
2018-08-11T08:39:30.370Z,99.90
2018-08-11T08:41:59.013Z,99.90
2018-08-11T08:44:27.445Z,99.90
2018-08-11T08:46:55.925Z,99.90
2018-08-11T08:49:24.573Z,99.90
2018-08-11T08:51:53.092Z,99.90
2018-08-11T08:54:21.556Z,99.90
2018-08-11T08:56:50.020Z,99.90
2018-08-11T08:59:18.567Z,99.90
2018-08-11T09:01:47.061Z,99.90
2018-08-11T09:04:15.492Z,99.90
2018-08-11T09:06:43.939Z,99.90
2018-08-11T09:09:12.961Z,99.90
2018-08-11T09:11:42.345Z,99.90
2018-08-11T09:14:11.167Z,99.90
2018-08-11T09:16:39.617Z,99.90
2018-08-11T09:19:08.092Z,99.90
2018-08-11T09:21:36.572Z,99.90
2018-08-11T09:24:05.036Z,99.90
2018-08-11T09:26:33.456Z,99.90
2018-08-11T09:29:01.889Z,99.90
2018-08-11T09:31:30.576Z,99.90
2018-08-11T09:33:59.019Z,99.90
2018-08-11T09:36:27.448Z,99.90
2018-08-11T09:38:55.892Z,99.90
2018-08-11T09:41:24.320Z,99.90
2018-08-11T09:43:52.770Z,99.90
2018-08-11T09:46:21.188Z,99.90
2018-08-11T09:48:49.703Z,99.90
2018-08-11T09:51:18.120Z,99.90
2018-08-11T09:53:47.064Z,99.90
2018-08-11T09:56:15.488Z,99.90
2018-08-11T09:58:43.976Z,99.90
2018-08-11T10:01:17.644Z,99.90
2018-08-11T10:03:46.096Z,99.90
2018-08-11T10:06:14.537Z,99.90
2018-08-11T10:08:42.957Z,99.90
2018-08-11T10:11:11.388Z,99.90
2018-08-11T10:13:39.836Z,99.90
2018-08-11T10:16:08.329Z,99.90
2018-08-11T10:18:36.882Z,99.90
2018-08-11T10:21:06.024Z,99.90
2018-08-11T10:23:34.460Z,99.90
2018-08-11T10:26:03.010Z,99.90
2018-08-11T10:28:31.759Z,99.90
2018-08-11T10:31:00.238Z,99.90
2018-08-11T10:33:28.768Z,99.90
2018-08-11T10:35:57.304Z,99.90
2018-08-11T10:38:25.780Z,99.80
2018-08-11T10:40:54.225Z,99.20
2018-08-11T10:43:22.679Z,99.90
2018-08-11T10:45:52.252Z,99.90
2018-08-11T10:48:20.811Z,99.90
2018-08-11T10:50:49.924Z,99.90
2018-08-11T10:53:18.925Z,99.90
2018-08-11T10:55:47.410Z,99.90
2018-08-11T10:58:15.905Z,99.90
2018-08-11T11:00:44.377Z,99.90
2018-08-11T11:03:12.861Z,99.90
2018-08-11T11:05:41.316Z,99.90
2018-08-11T11:08:09.776Z,98.70
2018-08-11T11:10:38.268Z,96.80
2018-08-11T11:13:07.252Z,98.10
2018-08-11T11:15:35.711Z,98.20
2018-08-11T11:18:04.360Z,98.80
2018-08-11T11:20:32.824Z,96.00
2018-08-11T11:23:01.342Z,94.00
2018-08-11T11:25:29.779Z,94.00
2018-08-11T11:27:59.112Z,93.40
2018-08-11T11:30:27.576Z,94.20
2018-08-11T11:32:56.017Z,94.10
2018-08-11T11:35:24.456Z,94.80
2018-08-11T11:37:52.868Z,95.10
2018-08-11T11:40:21.296Z,95.00
2018-08-11T11:42:49.728Z,94.90
2018-08-11T11:45:18.189Z,94.60
2018-08-11T11:47:46.645Z,94.50
2018-08-11T11:50:15.068Z,94.50
2018-08-11T11:52:43.508Z,93.30
2018-08-11T11:55:11.996Z,93.00
2018-08-11T11:57:40.429Z,92.80
2018-08-11T12:00:09.085Z,91.90
2018-08-11T12:02:37.621Z,92.10
2018-08-11T12:05:06.560Z,92.50
2018-08-11T12:07:35.008Z,93.60
2018-08-11T12:10:03.750Z,93.60
2018-08-11T12:12:32.552Z,93.30
2018-08-11T12:15:01.008Z,93.10
2018-08-11T12:17:29.568Z,92.20
2018-08-11T12:19:58.525Z,93.70
2018-08-11T12:22:26.988Z,93.60
2018-08-11T12:24:55.444Z,92.80
2018-08-11T12:27:24.272Z,92.80
2018-08-11T12:29:52.725Z,92.10
2018-08-11T12:32:21.163Z,92.20
2018-08-11T12:34:49.588Z,90.30
2018-08-11T12:37:18.348Z,90.80
2018-08-11T12:39:46.816Z,90.50
2018-08-11T12:42:15.268Z,90.40
2018-08-11T12:44:43.697Z,89.10
2018-08-11T12:47:12.176Z,87.60
2018-08-11T12:49:40.621Z,87.30
2018-08-11T12:52:09.110Z,86.40
2018-08-11T12:54:37.549Z,85.80
2018-08-11T12:57:06.073Z,85.80
2018-08-11T12:59:34.556Z,85.40
2018-08-11T13:02:03.124Z,83.10
2018-08-11T13:04:31.544Z,82.50
2018-08-11T13:07:00.090Z,83.30
2018-08-11T13:09:28.525Z,82.10
2018-08-11T13:11:56.948Z,82.90
2018-08-11T13:14:25.406Z,81.30
2018-08-11T13:16:53.825Z,80.10
2018-08-11T13:19:22.392Z,81.20
2018-08-11T13:21:50.851Z,81.00
2018-08-11T13:24:19.316Z,80.30
2018-08-11T13:26:47.760Z,80.50
2018-08-11T13:29:16.204Z,79.50
2018-08-11T13:31:44.625Z,79.10
2018-08-11T13:34:13.117Z,80.10
2018-08-11T13:36:41.592Z,80.30
2018-08-11T13:39:11.089Z,78.50
2018-08-11T13:41:45.424Z,77.50
2018-08-11T13:44:14.544Z,79.80
2018-08-11T13:46:42.989Z,77.20
2018-08-11T13:49:11.487Z,79.00
2018-08-11T13:51:39.984Z,76.70
2018-08-11T13:54:08.548Z,75.70
2018-08-11T13:56:37.685Z,77.20
2018-08-11T13:59:06.208Z,77.30
2018-08-11T14:01:34.840Z,77.10
2018-08-11T14:04:03.347Z,76.50
2018-08-11T14:06:31.998Z,76.90
2018-08-11T14:09:00.481Z,74.70
2018-08-11T14:11:28.916Z,77.10
2018-08-11T14:13:57.384Z,75.10
2018-08-11T14:16:26.296Z,75.10
2018-08-11T14:18:54.748Z,75.30
2018-08-11T14:21:23.184Z,76.20
2018-08-11T14:23:52.196Z,75.60
2018-08-11T14:26:20.652Z,75.40
2018-08-11T14:28:49.112Z,77.00
2018-08-11T14:31:17.560Z,76.20
2018-08-11T14:33:45.989Z,76.50
2018-08-11T14:36:14.466Z,77.10
2018-08-11T14:38:43.012Z,77.60
2018-08-11T14:41:11.381Z,77.50
2018-08-11T14:43:39.840Z,77.70
2018-08-11T14:46:09.046Z,77.80
2018-08-11T14:48:37.520Z,77.10
2018-08-11T14:51:05.958Z,77.60
2018-08-11T14:53:34.438Z,78.20
2018-08-11T14:56:02.921Z,77.50
2018-08-11T14:58:31.466Z,78.50
2018-08-11T15:01:00.324Z,78.00
2018-08-11T15:03:28.780Z,77.70
2018-08-11T15:05:57.307Z,78.30
2018-08-11T15:08:25.761Z,78.30
2018-08-11T15:10:54.261Z,78.20
2018-08-11T15:13:22.740Z,77.80
2018-08-11T15:15:51.246Z,77.90
2018-08-11T15:18:19.648Z,77.80
2018-08-11T15:20:48.500Z,77.40
2018-08-11T15:23:16.916Z,77.70
2018-08-11T15:25:45.352Z,78.20
2018-08-11T15:28:13.776Z,78.30
2018-08-11T15:30:42.240Z,78.60
2018-08-11T15:33:10.684Z,78.30
2018-08-11T15:35:39.117Z,78.50
2018-08-11T15:38:07.890Z,78.40
2018-08-11T15:40:36.325Z,79.00
2018-08-11T15:43:04.780Z,78.10
2018-08-11T15:45:33.232Z,78.80
2018-08-11T15:48:01.671Z,79.00
2018-08-11T15:50:30.176Z,78.60
2018-08-11T15:52:58.608Z,78.90
2018-08-11T15:55:27.067Z,79.70
2018-08-11T15:57:55.492Z,79.60
2018-08-11T16:00:23.951Z,78.60
2018-08-11T16:02:52.376Z,79.80
2018-08-11T16:05:20.786Z,79.00
2018-08-11T16:07:49.240Z,79.00
2018-08-11T16:10:17.659Z,79.00
2018-08-11T16:12:46.093Z,78.90
2018-08-11T16:15:14.516Z,79.20
2018-08-11T16:17:43.372Z,79.10
2018-08-11T16:20:11.861Z,79.70
2018-08-11T16:22:40.320Z,80.00
2018-08-11T16:25:08.761Z,79.70
2018-08-11T16:27:37.216Z,80.10
2018-08-11T16:30:08.157Z,79.80
2018-08-11T16:32:36.585Z,80.20
2018-08-11T16:35:05.277Z,80.10
2018-08-11T16:37:33.721Z,80.30
2018-08-11T16:40:02.468Z,80.00
2018-08-11T16:42:30.883Z,80.30
2018-08-11T16:44:59.312Z,80.30
2018-08-11T16:47:28.180Z,79.40
2018-08-11T16:49:56.621Z,79.80
2018-08-11T16:52:25.076Z,80.00
2018-08-11T16:54:53.976Z,80.70
2018-08-11T16:57:22.437Z,81.50
2018-08-11T16:59:51.316Z,80.90
2018-08-11T17:02:19.741Z,80.70
2018-08-11T17:04:48.173Z,80.10
2018-08-11T17:07:16.625Z,80.40
2018-08-11T17:09:45.041Z,80.50
2018-08-11T17:12:13.509Z,81.00
2018-08-11T17:14:41.978Z,80.90
2018-08-11T17:17:10.421Z,81.00
2018-08-11T17:19:38.877Z,80.90
2018-08-11T17:22:07.367Z,81.60
2018-08-11T17:24:35.796Z,81.70
2018-08-11T17:27:04.330Z,81.40
2018-08-11T17:29:32.720Z,81.90
2018-08-11T17:32:01.229Z,82.40
2018-08-11T17:34:29.641Z,82.20
2018-08-11T17:36:58.106Z,82.10
2018-08-11T17:39:26.529Z,82.50
2018-08-11T17:41:54.941Z,82.40
2018-08-11T17:44:23.385Z,82.60
2018-08-11T17:46:51.844Z,82.70
2018-08-11T17:49:20.305Z,82.80
2018-08-11T17:51:48.730Z,83.40
2018-08-11T17:54:17.211Z,83.60
2018-08-11T17:56:45.652Z,83.50
2018-08-11T17:59:14.109Z,83.40
2018-08-11T18:01:42.537Z,84.40
2018-08-11T18:04:10.999Z,84.10
2018-08-11T18:06:39.477Z,84.50
2018-08-11T18:09:10.081Z,84.40
2018-08-11T18:11:38.529Z,84.00
2018-08-11T18:14:07.164Z,85.60
2018-08-11T18:16:35.653Z,85.30
2018-08-11T18:19:04.168Z,85.30
2018-08-11T18:21:32.625Z,85.40
2018-08-11T18:24:01.058Z,85.30
2018-08-11T18:26:29.516Z,86.00
2018-08-11T18:28:57.939Z,86.50
2018-08-11T18:31:26.477Z,86.70
2018-08-11T18:33:54.965Z,86.80
2018-08-11T18:36:23.664Z,86.70
2018-08-11T18:38:52.108Z,86.80
2018-08-11T18:41:20.572Z,87.60
2018-08-11T18:43:49.005Z,88.00
2018-08-11T18:46:17.457Z,88.50
2018-08-11T18:48:45.912Z,89.30
2018-08-11T18:51:14.378Z,89.80
2018-08-11T18:53:42.800Z,90.00
2018-08-11T18:56:11.233Z,90.30
2018-08-11T18:58:39.732Z,90.30
2018-08-11T19:01:08.381Z,90.90
2018-08-11T19:03:36.820Z,90.70
2018-08-11T19:06:06.069Z,91.30
2018-08-11T19:08:34.520Z,91.60
2018-08-11T19:11:02.976Z,91.70
2018-08-11T19:13:31.484Z,91.50
2018-08-11T19:16:00.042Z,91.90
2018-08-11T19:18:28.577Z,92.50
2018-08-11T19:20:57.249Z,92.00
2018-08-11T19:23:25.765Z,92.70
2018-08-11T19:25:54.219Z,93.00
2018-08-11T19:28:22.654Z,93.40
2018-08-11T19:30:51.109Z,93.50
2018-08-11T19:33:19.537Z,94.20
2018-08-11T19:35:47.999Z,94.40
2018-08-11T19:38:16.448Z,94.80
2018-08-11T19:40:44.917Z,95.40
2018-08-11T19:43:13.459Z,95.90
2018-08-11T19:45:41.973Z,96.50
2018-08-11T19:48:10.411Z,97.40
2018-08-11T19:50:38.845Z,96.70
2018-08-11T19:53:07.314Z,96.40
2018-08-11T19:55:35.732Z,96.40
2018-08-11T19:58:04.263Z,96.60
2018-08-11T20:00:32.720Z,97.40
2018-08-11T20:03:01.186Z,97.40
2018-08-11T20:05:29.616Z,97.80
2018-08-11T20:07:58.052Z,98.00
2018-08-11T20:10:26.562Z,98.20
2018-08-11T20:12:55.007Z,98.80
2018-08-11T20:15:23.505Z,99.00
2018-08-11T20:17:51.943Z,99.50
2018-08-11T20:20:20.473Z,99.50
2018-08-11T20:22:48.930Z,99.40
2018-08-11T20:25:17.419Z,99.60
2018-08-11T20:27:45.905Z,99.90
2018-08-11T20:30:14.340Z,99.90
2018-08-11T20:32:42.913Z,99.90
2018-08-11T20:35:11.364Z,99.90
2018-08-11T20:37:39.852Z,99.90
2018-08-11T20:40:08.345Z,99.90
2018-08-11T20:42:36.792Z,99.90
2018-08-11T20:45:06.181Z,99.90
2018-08-11T20:47:34.715Z,99.90
2018-08-11T20:50:03.149Z,99.90
2018-08-11T20:52:31.578Z,99.90
2018-08-11T20:55:00.057Z,99.90
2018-08-11T20:57:28.516Z,99.90
2018-08-11T20:59:56.989Z,99.90
2018-08-11T21:02:25.467Z,99.90
2018-08-11T21:04:54.033Z,99.90
2018-08-11T21:07:22.420Z,99.90
2018-08-11T21:09:50.947Z,99.90
2018-08-11T21:12:19.392Z,99.90
2018-08-11T21:14:47.846Z,99.90
2018-08-11T21:17:16.380Z,99.90
2018-08-11T21:19:44.860Z,99.90
2018-08-11T21:22:13.336Z,99.90
2018-08-11T21:24:41.824Z,99.90
2018-08-11T21:27:10.301Z,99.90
2018-08-11T21:29:38.829Z,99.90
2018-08-11T21:32:07.370Z,99.90
2018-08-11T21:34:35.908Z,99.90
2018-08-11T21:37:04.488Z,99.90
2018-08-11T21:39:32.908Z,99.90
2018-08-11T21:42:01.380Z,99.90
2018-08-11T21:44:29.848Z,99.90
2018-08-11T21:46:58.339Z,99.90
2018-08-11T21:49:26.805Z,99.90
2018-08-11T21:51:55.372Z,99.90
2018-08-11T21:54:23.808Z,99.90
2018-08-11T21:56:52.264Z,99.90
2018-08-11T21:59:20.732Z,99.90
2018-08-11T22:01:49.224Z,99.90
2018-08-11T22:04:17.703Z,99.90
2018-08-11T22:06:46.160Z,99.90
2018-08-11T22:09:15.261Z,99.90
2018-08-11T22:11:43.749Z,99.90
2018-08-11T22:14:12.232Z,99.90
2018-08-11T22:16:40.681Z,99.90
2018-08-11T22:19:09.203Z,99.90
2018-08-11T22:21:37.675Z,99.90
2018-08-11T22:24:06.185Z,99.90
2018-08-11T22:26:34.704Z,99.90
2018-08-11T22:29:03.178Z,99.90
2018-08-11T22:31:31.649Z,99.90
2018-08-11T22:34:00.139Z,99.90
2018-08-11T22:36:28.643Z,99.90
2018-08-11T22:38:57.172Z,99.90
2018-08-11T22:41:25.650Z,99.90
2018-08-11T22:43:54.104Z,99.90
2018-08-11T22:46:22.636Z,99.90
2018-08-11T22:48:51.142Z,99.90
2018-08-11T22:51:19.656Z,99.90
2018-08-11T22:53:48.096Z,99.90
2018-08-11T22:56:16.568Z,99.90
2018-08-11T22:58:45.029Z,99.90
2018-08-11T23:01:13.523Z,99.90
2018-08-11T23:03:42.096Z,99.90
2018-08-11T23:06:10.609Z,99.90
2018-08-11T23:08:39.092Z,99.90
2018-08-11T23:11:08.044Z,99.90
2018-08-11T23:13:36.496Z,99.90
2018-08-11T23:16:05.037Z,99.90
2018-08-11T23:18:33.640Z,99.90
2018-08-11T23:21:02.109Z,99.90
2018-08-11T23:23:30.961Z,99.90
2018-08-11T23:25:59.464Z,99.90
2018-08-11T23:28:27.941Z,99.90
2018-08-11T23:30:56.531Z,99.90
2018-08-11T23:33:24.988Z,99.90
2018-08-11T23:35:53.424Z,99.90
2018-08-11T23:38:21.901Z,99.90
2018-08-11T23:40:50.392Z,99.90
2018-08-11T23:43:19.289Z,99.90
2018-08-11T23:45:47.784Z,99.90
2018-08-11T23:48:16.285Z,99.90
2018-08-11T23:50:44.748Z,99.90
2018-08-11T23:53:13.313Z,99.90
2018-08-11T23:55:41.780Z,99.90
2018-08-11T23:58:10.269Z,99.90
